createdAt,value
2019-02-07T00:00:56.566Z,1012.41
2019-02-07T00:01:56.531Z,1012.40
2019-02-07T00:02:56.515Z,1012.41
2019-02-07T00:03:56.508Z,1012.38
2019-02-07T00:04:56.498Z,1012.36
2019-02-07T00:05:56.485Z,1012.34
2019-02-07T00:06:56.493Z,1012.32
2019-02-07T00:07:56.462Z,1012.27
2019-02-07T00:08:56.451Z,1012.32
2019-02-07T00:09:56.446Z,1012.27
2019-02-07T00:10:56.435Z,1012.25
2019-02-07T00:11:56.442Z,1012.32
2019-02-07T00:12:56.420Z,1012.32
2019-02-07T00:13:56.396Z,1012.30
2019-02-07T00:14:56.396Z,1012.25
2019-02-07T00:15:56.377Z,1012.20
2019-02-07T00:16:56.380Z,1012.20
2019-02-07T00:17:56.356Z,1012.20
2019-02-07T00:18:56.345Z,1012.17
2019-02-07T00:19:56.330Z,1012.15
2019-02-07T00:20:56.323Z,1012.18
2019-02-07T00:21:56.329Z,1012.14
2019-02-07T00:22:56.298Z,1012.13
2019-02-07T00:23:56.282Z,1012.12
2019-02-07T00:24:56.274Z,1012.10
2019-02-07T00:25:56.262Z,1012.07
2019-02-07T00:26:56.274Z,1012.04
2019-02-07T00:27:56.244Z,1012.07
2019-02-07T00:28:56.225Z,1012.00
2019-02-07T00:29:56.229Z,1012.02
2019-02-07T00:30:56.212Z,1012.03
2019-02-07T00:31:56.219Z,1011.99
2019-02-07T00:32:56.187Z,1011.96
2019-02-07T00:33:56.173Z,1011.96
2019-02-07T00:34:56.202Z,1011.97
2019-02-07T00:35:56.162Z,1012.00
2019-02-07T00:36:56.158Z,1012.01
2019-02-07T00:37:56.124Z,1012.01
2019-02-07T00:38:56.116Z,1011.97
2019-02-07T00:39:56.106Z,1011.97
2019-02-07T00:40:56.093Z,1012.00
2019-02-07T00:41:56.096Z,1011.97
2019-02-07T00:42:56.074Z,1011.94
2019-02-07T00:43:56.060Z,1011.96
2019-02-07T00:44:56.052Z,1011.91
2019-02-07T00:45:56.036Z,1011.89
2019-02-07T00:46:56.042Z,1011.92
2019-02-07T00:47:56.013Z,1011.93
2019-02-07T00:48:56.000Z,1011.85
2019-02-07T00:49:55.994Z,1011.81
2019-02-07T00:50:55.981Z,1011.82
2019-02-07T00:51:55.988Z,1011.82
2019-02-07T00:52:55.957Z,1011.82
2019-02-07T00:53:55.945Z,1011.84
2019-02-07T00:54:55.933Z,1011.83
2019-02-07T00:55:55.923Z,1011.86
2019-02-07T00:56:55.951Z,1011.85
2019-02-07T00:57:55.897Z,1011.89
2019-02-07T00:58:55.890Z,1011.85
2019-02-07T00:59:55.874Z,1011.86
2019-02-07T01:00:55.861Z,1011.81
2019-02-07T01:01:55.857Z,1011.82
2019-02-07T01:02:55.861Z,1011.80
2019-02-07T01:03:55.829Z,1011.82
2019-02-07T01:04:55.821Z,1011.79
2019-02-07T01:05:55.817Z,1011.79
2019-02-07T01:06:55.800Z,1011.81
2019-02-07T01:07:55.800Z,1011.82
2019-02-07T01:08:55.775Z,1011.81
2019-02-07T01:09:55.776Z,1011.79
2019-02-07T01:10:55.754Z,1011.75
2019-02-07T01:11:55.743Z,1011.72
2019-02-07T01:12:55.776Z,1011.72
2019-02-07T01:13:55.717Z,1011.68
2019-02-07T01:15:02.001Z,1011.61
2019-02-07T01:15:56.700Z,1011.60
2019-02-07T01:16:55.690Z,1011.55
2019-02-07T01:17:55.689Z,1011.46
2019-02-07T01:18:55.663Z,1011.54
2019-02-07T01:19:55.647Z,1011.50
2019-02-07T01:20:55.782Z,1011.41
2019-02-07T01:21:55.625Z,1011.46
2019-02-07T01:22:55.650Z,1011.40
2019-02-07T01:23:55.603Z,1011.45
2019-02-07T01:24:55.591Z,1011.45
2019-02-07T01:25:55.580Z,1011.45
2019-02-07T01:26:55.568Z,1011.42
2019-02-07T01:27:55.581Z,1011.39
2019-02-07T01:28:55.547Z,1011.39
2019-02-07T01:29:55.553Z,1011.42
2019-02-07T01:30:55.529Z,1011.41
2019-02-07T01:31:55.515Z,1011.39
2019-02-07T01:32:55.523Z,1011.38
2019-02-07T01:33:55.496Z,1011.38
2019-02-07T01:34:55.480Z,1011.40
2019-02-07T01:35:55.471Z,1011.42
2019-02-07T01:36:55.449Z,1011.34
2019-02-07T01:37:55.462Z,1011.32
2019-02-07T01:38:55.438Z,1011.30
2019-02-07T01:39:55.426Z,1011.27
2019-02-07T01:40:55.409Z,1011.27
2019-02-07T01:41:55.402Z,1011.30
2019-02-07T01:42:55.930Z,1011.29
2019-02-07T01:43:55.375Z,1011.33
2019-02-07T01:44:55.372Z,1011.33
2019-02-07T01:45:55.355Z,1011.28
2019-02-07T01:46:55.407Z,1011.31
2019-02-07T01:47:55.375Z,1011.29
2019-02-07T01:48:55.320Z,1011.30
2019-02-07T01:49:55.329Z,1011.27
2019-02-07T01:50:55.365Z,1011.24
2019-02-07T01:51:55.287Z,1011.20
2019-02-07T01:52:55.277Z,1011.18
2019-02-07T01:53:55.299Z,1011.17
2019-02-07T01:54:55.252Z,1011.17
2019-02-07T01:55:55.239Z,1011.23
2019-02-07T01:56:55.228Z,1011.33
2019-02-07T01:57:55.217Z,1011.32
2019-02-07T01:58:55.225Z,1011.34
2019-02-07T01:59:55.193Z,1011.27
2019-02-07T02:00:55.179Z,1011.27
2019-02-07T02:01:55.176Z,1011.20
2019-02-07T02:02:55.167Z,1011.12
2019-02-07T02:03:55.175Z,1011.09
2019-02-07T02:04:55.136Z,1011.00
2019-02-07T02:05:55.127Z,1011.01
2019-02-07T02:06:55.119Z,1011.02
2019-02-07T02:07:55.122Z,1011.04
2019-02-07T02:08:55.123Z,1011.03
2019-02-07T02:09:55.077Z,1010.95
2019-02-07T02:10:55.068Z,1010.95
2019-02-07T02:11:55.061Z,1010.96
2019-02-07T02:12:55.048Z,1010.87
2019-02-07T02:13:55.057Z,1010.85
2019-02-07T02:14:55.029Z,1010.83
2019-02-07T02:15:55.020Z,1010.79
2019-02-07T02:16:55.001Z,1010.85
2019-02-07T02:17:54.998Z,1010.81
2019-02-07T02:18:55.002Z,1010.74
2019-02-07T02:19:54.967Z,1010.77
2019-02-07T02:20:54.954Z,1010.74
2019-02-07T02:21:54.942Z,1010.78
2019-02-07T02:22:54.938Z,1010.76
2019-02-07T02:23:54.945Z,1010.68
2019-02-07T02:24:54.910Z,1010.78
2019-02-07T02:25:54.902Z,1010.75
2019-02-07T02:26:54.888Z,1010.63
2019-02-07T02:27:54.876Z,1010.66
2019-02-07T02:28:54.879Z,1010.59
2019-02-07T02:29:54.851Z,1010.55
2019-02-07T02:30:54.846Z,1010.51
2019-02-07T02:31:54.846Z,1010.49
2019-02-07T02:32:54.823Z,1010.42
2019-02-07T02:33:54.823Z,1010.49
2019-02-07T02:34:54.804Z,1010.45
2019-02-07T02:35:54.789Z,1010.42
2019-02-07T02:36:54.787Z,1010.42
2019-02-07T02:37:54.766Z,1010.43
2019-02-07T02:38:54.757Z,1010.42
2019-02-07T02:39:54.761Z,1010.46
2019-02-07T02:40:54.732Z,1010.42
2019-02-07T02:41:54.722Z,1010.47
2019-02-07T02:42:54.892Z,1010.47
2019-02-07T02:43:54.718Z,1010.40
2019-02-07T02:44:54.705Z,1010.36
2019-02-07T02:45:54.678Z,1010.39
2019-02-07T02:46:54.662Z,1010.34
2019-02-07T02:47:54.657Z,1010.36
2019-02-07T02:48:54.646Z,1010.38
2019-02-07T02:49:54.640Z,1010.38
2019-02-07T02:50:54.622Z,1010.36
2019-02-07T02:51:54.608Z,1010.30
2019-02-07T02:52:54.595Z,1010.27
2019-02-07T02:53:54.592Z,1010.22
2019-02-07T02:54:54.599Z,1010.20
2019-02-07T02:55:54.560Z,1010.18
2019-02-07T02:56:54.548Z,1010.19
2019-02-07T02:57:54.544Z,1010.17
2019-02-07T02:58:54.529Z,1010.13
2019-02-07T02:59:54.532Z,1010.14
2019-02-07T03:00:54.502Z,1010.08
2019-02-07T03:01:54.512Z,1010.11
2019-02-07T03:02:54.481Z,1010.07
2019-02-07T03:03:54.468Z,1010.05
2019-02-07T03:04:54.469Z,1010.11
2019-02-07T03:05:54.459Z,1010.09
2019-02-07T03:06:54.437Z,1010.10
2019-02-07T03:07:54.424Z,1010.11
2019-02-07T03:08:54.416Z,1010.11
2019-02-07T03:09:54.438Z,1010.14
2019-02-07T03:10:54.394Z,1010.16
2019-02-07T03:11:54.379Z,1010.11
2019-02-07T03:12:54.375Z,1010.13
2019-02-07T03:13:54.361Z,1010.09
2019-02-07T03:14:54.345Z,1010.09
2019-02-07T03:15:54.344Z,1010.07
2019-02-07T03:16:54.334Z,1010.11
2019-02-07T03:17:54.318Z,1010.03
2019-02-07T03:18:54.306Z,1010.09
2019-02-07T03:19:54.300Z,1010.03
2019-02-07T03:20:54.298Z,1010.06
2019-02-07T03:21:54.265Z,1010.02
2019-02-07T03:22:54.253Z,1010.00
2019-02-07T03:23:54.244Z,1010.00
2019-02-07T03:24:54.230Z,1009.97
2019-02-07T03:25:54.236Z,1009.94
2019-02-07T03:26:54.212Z,1009.88
2019-02-07T03:27:54.197Z,1009.90
2019-02-07T03:28:54.192Z,1009.89
2019-02-07T03:29:54.179Z,1009.86
2019-02-07T03:30:54.186Z,1009.83
2019-02-07T03:31:54.152Z,1009.83
2019-02-07T03:32:54.144Z,1009.82
2019-02-07T03:33:54.130Z,1009.80
2019-02-07T03:34:54.127Z,1009.77
2019-02-07T03:35:54.128Z,1009.80
2019-02-07T03:36:54.102Z,1009.72
2019-02-07T03:37:54.084Z,1009.73
2019-02-07T03:38:54.076Z,1009.71
2019-02-07T03:39:54.062Z,1009.69
2019-02-07T03:40:54.069Z,1009.68
2019-02-07T03:41:54.037Z,1009.67
2019-02-07T03:42:54.029Z,1009.64
2019-02-07T03:43:54.020Z,1009.59
2019-02-07T03:44:54.007Z,1009.59
2019-02-07T03:46:02.327Z,1009.59
2019-02-07T03:46:54.983Z,1009.61
2019-02-07T03:47:53.976Z,1009.63
2019-02-07T03:48:53.961Z,1009.66
2019-02-07T03:49:53.947Z,1009.65
2019-02-07T03:50:53.968Z,1009.63
2019-02-07T03:51:53.933Z,1009.65
2019-02-07T03:52:53.923Z,1009.61
2019-02-07T03:53:53.908Z,1009.53
2019-02-07T03:54:53.895Z,1009.57
2019-02-07T03:55:53.885Z,1009.57
2019-02-07T03:56:53.887Z,1009.55
2019-02-07T03:57:53.863Z,1009.58
2019-02-07T03:58:53.849Z,1009.57
2019-02-07T03:59:53.836Z,1009.54
2019-02-07T04:00:53.826Z,1009.53
2019-02-07T04:01:53.843Z,1009.53
2019-02-07T04:02:53.807Z,1009.55
2019-02-07T04:03:53.794Z,1009.56
2019-02-07T04:04:53.777Z,1009.50
2019-02-07T04:05:53.772Z,1009.51
2019-02-07T04:06:53.867Z,1009.47
2019-02-07T04:07:53.742Z,1009.48
2019-02-07T04:08:53.737Z,1009.50
2019-02-07T04:09:53.719Z,1009.49
2019-02-07T04:10:53.709Z,1009.48
2019-02-07T04:11:53.717Z,1009.49
2019-02-07T04:12:53.697Z,1009.43
2019-02-07T04:13:53.676Z,1009.44
2019-02-07T04:14:53.663Z,1009.45
2019-02-07T04:15:53.654Z,1009.42
2019-02-07T04:16:53.661Z,1009.44
2019-02-07T04:17:53.634Z,1009.47
2019-02-07T04:18:53.628Z,1009.42
2019-02-07T04:19:53.611Z,1009.42
2019-02-07T04:20:53.595Z,1009.42
2019-02-07T04:21:53.615Z,1009.44
2019-02-07T04:22:53.575Z,1009.42
2019-02-07T04:23:53.567Z,1009.43
2019-02-07T04:24:53.552Z,1009.40
2019-02-07T04:25:53.545Z,1009.42
2019-02-07T04:26:53.543Z,1009.43
2019-02-07T04:27:53.519Z,1009.37
2019-02-07T04:28:53.513Z,1009.34
2019-02-07T04:29:53.497Z,1009.40
2019-02-07T04:30:53.484Z,1009.35
2019-02-07T04:31:53.486Z,1009.37
2019-02-07T04:32:53.461Z,1009.31
2019-02-07T04:33:53.453Z,1009.26
2019-02-07T04:34:53.437Z,1009.24
2019-02-07T04:35:53.435Z,1009.25
2019-02-07T04:36:53.437Z,1009.24
2019-02-07T04:37:53.411Z,1009.23
2019-02-07T04:38:53.397Z,1009.16
2019-02-07T04:39:53.388Z,1009.21
2019-02-07T04:40:53.379Z,1009.21
2019-02-07T04:41:53.385Z,1009.13
2019-02-07T04:42:53.349Z,1009.12
2019-02-07T04:43:53.338Z,1009.10
2019-02-07T04:44:53.326Z,1009.07
2019-02-07T04:45:53.316Z,1009.03
2019-02-07T04:46:53.345Z,1009.03
2019-02-07T04:47:53.310Z,1009.04
2019-02-07T04:48:53.282Z,1009.00
2019-02-07T04:49:53.271Z,1009.01
2019-02-07T04:50:53.275Z,1009.01
2019-02-07T04:51:53.249Z,1008.96
2019-02-07T04:52:53.263Z,1008.96
2019-02-07T04:53:53.236Z,1008.99
2019-02-07T04:54:53.218Z,1008.96
2019-02-07T04:55:53.215Z,1008.94
2019-02-07T04:56:53.196Z,1008.92
2019-02-07T04:57:53.202Z,1008.89
2019-02-07T04:58:53.168Z,1008.90
2019-02-07T04:59:53.163Z,1008.85
2019-02-07T05:00:53.167Z,1008.85
2019-02-07T05:01:53.137Z,1008.86
2019-02-07T05:02:53.144Z,1008.84
2019-02-07T05:03:53.117Z,1008.77
2019-02-07T05:04:53.114Z,1008.75
2019-02-07T05:05:53.094Z,1008.71
2019-02-07T05:06:53.089Z,1008.68
2019-02-07T05:07:53.090Z,1008.67
2019-02-07T05:08:53.061Z,1008.62
2019-02-07T05:09:53.053Z,1008.57
2019-02-07T05:10:53.043Z,1008.60
2019-02-07T05:11:53.027Z,1008.60
2019-02-07T05:12:53.018Z,1008.66
2019-02-07T05:13:53.034Z,1008.62
2019-02-07T05:14:53.008Z,1008.66
2019-02-07T05:15:52.980Z,1008.63
2019-02-07T05:16:52.968Z,1008.68
2019-02-07T05:17:52.977Z,1008.67
2019-02-07T05:18:52.981Z,1008.68
2019-02-07T05:19:52.936Z,1008.69
2019-02-07T05:20:52.928Z,1008.70
2019-02-07T05:21:52.914Z,1008.66
2019-02-07T05:22:52.908Z,1008.64
2019-02-07T05:23:52.915Z,1008.58
2019-02-07T05:24:52.881Z,1008.53
2019-02-07T05:25:52.868Z,1008.55
2019-02-07T05:26:52.872Z,1008.56
2019-02-07T05:27:52.850Z,1008.56
2019-02-07T05:28:52.854Z,1008.52
2019-02-07T05:29:52.818Z,1008.57
2019-02-07T05:30:52.815Z,1008.57
2019-02-07T05:31:52.804Z,1008.57
2019-02-07T05:32:52.789Z,1008.53
2019-02-07T05:33:52.814Z,1008.51
2019-02-07T05:34:52.777Z,1008.47
2019-02-07T05:35:52.759Z,1008.43
2019-02-07T05:36:52.743Z,1008.40
2019-02-07T05:37:52.734Z,1008.38
2019-02-07T05:38:53.249Z,1008.37
2019-02-07T05:39:52.709Z,1008.36
2019-02-07T05:40:52.706Z,1008.38
2019-02-07T05:41:52.690Z,1008.39
2019-02-07T05:42:52.681Z,1008.40
2019-02-07T05:43:52.686Z,1008.42
2019-02-07T05:44:52.682Z,1008.37
2019-02-07T05:45:52.641Z,1008.33
2019-02-07T05:46:52.636Z,1008.33
2019-02-07T05:47:52.627Z,1008.35
2019-02-07T05:48:52.645Z,1008.37
2019-02-07T05:49:52.604Z,1008.35
2019-02-07T05:50:52.592Z,1008.33
2019-02-07T05:51:52.599Z,1008.39
2019-02-07T05:52:52.774Z,1008.42
2019-02-07T05:53:52.563Z,1008.37
2019-02-07T05:54:52.570Z,1008.40
2019-02-07T05:55:52.533Z,1008.38
2019-02-07T05:56:52.530Z,1008.35
2019-02-07T05:57:52.535Z,1008.34
2019-02-07T05:58:52.502Z,1008.31
2019-02-07T05:59:52.509Z,1008.28
2019-02-07T06:00:52.557Z,1008.28
2019-02-07T06:01:52.473Z,1008.32
2019-02-07T06:02:52.467Z,1008.34
2019-02-07T06:03:52.447Z,1008.30
2019-02-07T06:04:52.634Z,1008.32
2019-02-07T06:05:52.430Z,1008.30
2019-02-07T06:06:52.411Z,1008.33
2019-02-07T06:07:52.408Z,1008.31
2019-02-07T06:08:52.391Z,1008.32
2019-02-07T06:09:52.407Z,1008.32
2019-02-07T06:10:52.389Z,1008.26
2019-02-07T06:11:52.352Z,1008.22
2019-02-07T06:12:52.352Z,1008.24
2019-02-07T06:13:52.331Z,1008.19
2019-02-07T06:14:52.509Z,1008.11
2019-02-07T06:15:52.323Z,1008.12
2019-02-07T06:17:02.319Z,1008.12
2019-02-07T06:17:53.287Z,1008.11
2019-02-07T06:18:52.302Z,1008.12
2019-02-07T06:19:52.267Z,1008.16
2019-02-07T06:20:52.272Z,1008.16
2019-02-07T06:21:52.245Z,1008.17
2019-02-07T06:22:52.232Z,1008.16
2019-02-07T06:23:52.231Z,1008.14
2019-02-07T06:24:52.209Z,1008.10
2019-02-07T06:25:52.255Z,1008.07
2019-02-07T06:26:52.199Z,1008.12
2019-02-07T06:27:52.175Z,1008.12
2019-02-07T06:28:52.167Z,1008.07
2019-02-07T06:29:52.170Z,1008.06
2019-02-07T06:30:52.178Z,1008.07
2019-02-07T06:31:52.131Z,1008.02
2019-02-07T06:32:52.139Z,1007.99
2019-02-07T06:33:52.111Z,1007.96
2019-02-07T06:34:52.097Z,1007.99
2019-02-07T06:35:52.116Z,1007.96
2019-02-07T06:36:52.080Z,1007.92
2019-02-07T06:37:52.075Z,1007.93
2019-02-07T06:38:52.057Z,1007.95
2019-02-07T06:39:52.052Z,1007.94
2019-02-07T06:40:52.136Z,1007.89
2019-02-07T06:41:52.022Z,1007.85
2019-02-07T06:42:52.018Z,1007.87
2019-02-07T06:43:52.000Z,1007.76
2019-02-07T06:44:51.994Z,1007.82
2019-02-07T06:45:51.976Z,1007.73
2019-02-07T06:46:51.997Z,1007.77
2019-02-07T06:47:51.959Z,1007.82
2019-02-07T06:48:51.945Z,1007.85
2019-02-07T06:49:51.929Z,1007.86
2019-02-07T06:50:51.928Z,1007.87
2019-02-07T06:51:51.920Z,1007.85
2019-02-07T06:52:51.898Z,1007.80
2019-02-07T06:53:51.889Z,1007.82
2019-02-07T06:54:51.878Z,1007.80
2019-02-07T06:55:51.867Z,1007.77
2019-02-07T06:56:51.865Z,1007.72
2019-02-07T06:57:51.843Z,1007.76
2019-02-07T06:58:51.840Z,1007.70
2019-02-07T06:59:51.823Z,1007.67
2019-02-07T07:00:51.816Z,1007.68
2019-02-07T07:01:51.838Z,1007.65
2019-02-07T07:02:51.794Z,1007.58
2019-02-07T07:03:51.778Z,1007.62
2019-02-07T07:04:51.770Z,1007.63
2019-02-07T07:05:51.756Z,1007.65
2019-02-07T07:06:51.748Z,1007.59
2019-02-07T07:07:51.742Z,1007.64
2019-02-07T07:08:51.724Z,1007.66
2019-02-07T07:09:51.703Z,1007.59
2019-02-07T07:10:51.699Z,1007.59
2019-02-07T07:11:51.684Z,1007.57
2019-02-07T07:12:51.703Z,1007.55
2019-02-07T07:13:51.668Z,1007.59
2019-02-07T07:14:51.660Z,1007.54
2019-02-07T07:15:51.656Z,1007.58
2019-02-07T07:16:51.630Z,1007.55
2019-02-07T07:17:51.656Z,1007.59
2019-02-07T07:18:51.613Z,1007.58
2019-02-07T07:19:51.594Z,1007.55
2019-02-07T07:20:51.668Z,1007.56
2019-02-07T07:21:51.577Z,1007.58
2019-02-07T07:22:51.586Z,1007.55
2019-02-07T07:23:51.553Z,1007.53
2019-02-07T07:24:51.549Z,1007.55
2019-02-07T07:25:51.526Z,1007.52
2019-02-07T07:26:51.521Z,1007.57
2019-02-07T07:27:51.551Z,1007.61
2019-02-07T07:28:51.622Z,1007.62
2019-02-07T07:29:51.486Z,1007.62
2019-02-07T07:30:51.478Z,1007.60
2019-02-07T07:31:51.467Z,1007.57
2019-02-07T07:32:51.468Z,1007.52
2019-02-07T07:33:51.465Z,1007.54
2019-02-07T07:34:51.429Z,1007.49
2019-02-07T07:35:51.428Z,1007.49
2019-02-07T07:36:51.404Z,1007.50
2019-02-07T07:37:51.396Z,1007.51
2019-02-07T07:38:51.406Z,1007.55
2019-02-07T07:39:51.377Z,1007.60
2019-02-07T07:40:51.361Z,1007.62
2019-02-07T07:41:51.357Z,1007.57
2019-02-07T07:42:51.342Z,1007.53
2019-02-07T07:43:51.351Z,1007.55
2019-02-07T07:44:51.335Z,1007.53
2019-02-07T07:45:51.305Z,1007.55
2019-02-07T07:46:51.299Z,1007.50
2019-02-07T07:47:51.287Z,1007.53
2019-02-07T07:48:51.291Z,1007.48
2019-02-07T07:49:51.281Z,1007.47
2019-02-07T07:50:51.250Z,1007.45
2019-02-07T07:51:51.238Z,1007.43
2019-02-07T07:52:51.232Z,1007.40
2019-02-07T07:53:51.293Z,1007.36
2019-02-07T07:54:51.231Z,1007.34
2019-02-07T07:55:51.218Z,1007.30
2019-02-07T07:56:51.215Z,1007.34
2019-02-07T07:57:51.170Z,1007.25
2019-02-07T07:58:51.194Z,1007.21
2019-02-07T07:59:51.148Z,1007.23
2019-02-07T08:00:51.256Z,1007.23
2019-02-07T08:01:51.135Z,1007.21
2019-02-07T08:02:51.135Z,1007.16
2019-02-07T08:03:51.159Z,1007.15
2019-02-07T08:04:51.095Z,1007.14
2019-02-07T08:05:53.320Z,1007.15
2019-02-07T08:06:51.081Z,1007.15
2019-02-07T08:07:51.060Z,1007.16
2019-02-07T08:08:51.093Z,1007.13
2019-02-07T08:09:51.046Z,1007.22
2019-02-07T08:10:51.192Z,1007.12
2019-02-07T08:11:51.068Z,1007.10
2019-02-07T08:12:51.023Z,1007.06
2019-02-07T08:13:51.009Z,1007.04
2019-02-07T08:14:51.029Z,1006.99
2019-02-07T08:15:50.985Z,1006.99
2019-02-07T08:16:50.983Z,1007.00
2019-02-07T08:17:50.978Z,1006.99
2019-02-07T08:18:50.964Z,1006.96
2019-02-07T08:19:50.991Z,1006.94
2019-02-07T08:20:50.941Z,1006.97
2019-02-07T08:21:50.910Z,1006.94
2019-02-07T08:22:50.909Z,1006.97
2019-02-07T08:23:50.896Z,1006.92
2019-02-07T08:24:50.895Z,1006.95
2019-02-07T08:25:50.861Z,1006.93
2019-02-07T08:26:50.850Z,1006.96
2019-02-07T08:27:50.837Z,1006.85
2019-02-07T08:28:50.827Z,1006.86
2019-02-07T08:29:50.834Z,1006.86
2019-02-07T08:30:50.807Z,1006.87
2019-02-07T08:31:50.795Z,1006.86
2019-02-07T08:32:50.781Z,1006.81
2019-02-07T08:33:50.767Z,1006.85
2019-02-07T08:34:50.780Z,1006.81
2019-02-07T08:35:50.757Z,1006.80
2019-02-07T08:36:50.740Z,1006.83
2019-02-07T08:37:50.757Z,1006.78
2019-02-07T08:38:50.714Z,1006.75
2019-02-07T08:39:50.742Z,1006.72
2019-02-07T08:40:50.709Z,1006.71
2019-02-07T08:41:50.684Z,1006.68
2019-02-07T08:42:50.671Z,1006.70
2019-02-07T08:43:50.669Z,1006.68
2019-02-07T08:44:50.656Z,1006.63
2019-02-07T08:45:50.653Z,1006.70
2019-02-07T08:46:50.633Z,1006.61
2019-02-07T08:47:58.354Z,1006.60
2019-02-07T08:48:51.598Z,1006.53
2019-02-07T08:49:50.587Z,1006.55
2019-02-07T08:50:50.672Z,1006.46
2019-02-07T08:51:50.589Z,1006.44
2019-02-07T08:52:50.551Z,1006.41
2019-02-07T08:53:50.548Z,1006.45
2019-02-07T08:54:50.535Z,1006.47
2019-02-07T08:55:50.549Z,1006.43
2019-02-07T08:56:50.512Z,1006.42
2019-02-07T08:57:50.505Z,1006.43
2019-02-07T08:58:50.495Z,1006.40
2019-02-07T08:59:50.477Z,1006.39
2019-02-07T09:00:50.483Z,1006.40
2019-02-07T09:01:50.451Z,1006.35
2019-02-07T09:02:52.066Z,1006.37
2019-02-07T09:03:50.432Z,1006.34
2019-02-07T09:04:51.386Z,1006.32
2019-02-07T09:05:50.443Z,1006.38
2019-02-07T09:06:50.397Z,1006.32
2019-02-07T09:07:50.394Z,1006.34
2019-02-07T09:08:50.381Z,1006.35
2019-02-07T09:09:50.370Z,1006.31
2019-02-07T09:10:50.353Z,1006.38
2019-02-07T09:11:50.408Z,1006.32
2019-02-07T09:12:50.334Z,1006.32
2019-02-07T09:13:53.696Z,1006.29
2019-02-07T09:14:50.310Z,1006.32
2019-02-07T09:15:50.304Z,1006.27
2019-02-07T09:16:50.321Z,1006.28
2019-02-07T09:17:50.280Z,1006.27
2019-02-07T09:18:50.298Z,1006.24
2019-02-07T09:19:50.258Z,1006.24
2019-02-07T09:20:50.244Z,1006.22
2019-02-07T09:21:50.256Z,1006.19
2019-02-07T09:22:50.241Z,1006.19
2019-02-07T09:23:50.212Z,1006.18
2019-02-07T09:24:50.208Z,1006.14
2019-02-07T09:25:50.190Z,1006.09
2019-02-07T09:26:50.203Z,1006.06
2019-02-07T09:27:50.166Z,1006.08
2019-02-07T09:28:50.159Z,1005.95
2019-02-07T09:29:50.146Z,1005.97
2019-02-07T09:30:50.129Z,1005.91
2019-02-07T09:31:50.150Z,1005.91
2019-02-07T09:32:50.109Z,1005.92
2019-02-07T09:33:50.098Z,1005.97
2019-02-07T09:34:50.090Z,1005.92
2019-02-07T09:35:50.081Z,1005.89
2019-02-07T09:36:50.060Z,1005.89
2019-02-07T09:37:50.079Z,1005.89
2019-02-07T09:38:50.043Z,1005.92
2019-02-07T09:39:50.028Z,1005.90
2019-02-07T09:40:50.023Z,1005.98
2019-02-07T09:41:50.022Z,1005.96
2019-02-07T09:42:50.021Z,1006.02
2019-02-07T09:43:49.990Z,1005.98
2019-02-07T09:44:49.974Z,1005.95
2019-02-07T09:45:49.962Z,1005.90
2019-02-07T09:46:49.955Z,1005.91
2019-02-07T09:47:49.962Z,1005.94
2019-02-07T09:48:49.936Z,1005.91
2019-02-07T09:49:49.923Z,1005.91
2019-02-07T09:50:49.908Z,1005.92
2019-02-07T09:51:49.891Z,1005.94
2019-02-07T09:52:49.918Z,1005.91
2019-02-07T09:53:49.875Z,1005.92
2019-02-07T09:54:49.865Z,1005.93
2019-02-07T09:55:49.849Z,1005.83
2019-02-07T09:56:49.849Z,1005.93
2019-02-07T09:57:49.829Z,1005.88
2019-02-07T09:58:49.842Z,1005.91
2019-02-07T09:59:49.811Z,1005.94
2019-02-07T10:00:49.792Z,1005.97
2019-02-07T10:01:49.786Z,1005.96
2019-02-07T10:02:49.772Z,1005.92
2019-02-07T10:03:49.785Z,1005.95
2019-02-07T10:04:49.745Z,1006.00
2019-02-07T10:05:49.739Z,1005.92
2019-02-07T10:06:49.725Z,1005.91
2019-02-07T10:07:49.729Z,1005.91
2019-02-07T10:08:49.740Z,1005.89
2019-02-07T10:09:49.686Z,1005.83
2019-02-07T10:10:49.694Z,1005.83
2019-02-07T10:11:49.685Z,1005.81
2019-02-07T10:12:49.683Z,1005.82
2019-02-07T10:13:49.673Z,1005.73
2019-02-07T10:14:49.640Z,1005.70
2019-02-07T10:15:49.625Z,1005.76
2019-02-07T10:16:49.614Z,1005.69
2019-02-07T10:17:49.603Z,1005.65
2019-02-07T10:18:49.610Z,1005.64
2019-02-07T10:19:49.584Z,1005.61
2019-02-07T10:20:49.588Z,1005.66
2019-02-07T10:21:49.551Z,1005.61
2019-02-07T10:22:49.562Z,1005.60
2019-02-07T10:23:49.565Z,1005.61
2019-02-07T10:24:49.522Z,1005.62
2019-02-07T10:25:51.393Z,1005.62
2019-02-07T10:26:49.498Z,1005.64
2019-02-07T10:27:49.487Z,1005.62
2019-02-07T10:28:49.487Z,1005.66
2019-02-07T10:29:49.488Z,1005.63
2019-02-07T10:30:49.451Z,1005.65
2019-02-07T10:31:49.443Z,1005.62
2019-02-07T10:32:49.432Z,1005.57
2019-02-07T10:33:49.425Z,1005.54
2019-02-07T10:34:49.431Z,1005.52
2019-02-07T10:35:49.407Z,1005.46
2019-02-07T10:36:49.397Z,1005.35
2019-02-07T10:37:49.384Z,1005.33
2019-02-07T10:38:49.375Z,1005.36
2019-02-07T10:39:49.373Z,1005.36
2019-02-07T10:40:49.341Z,1005.36
2019-02-07T10:41:49.450Z,1005.25
2019-02-07T10:42:49.314Z,1005.14
2019-02-07T10:43:49.311Z,1005.16
2019-02-07T10:44:49.347Z,1005.18
2019-02-07T10:45:49.288Z,1005.17
2019-02-07T10:46:49.283Z,1005.21
2019-02-07T10:47:49.277Z,1005.17
2019-02-07T10:48:49.254Z,1005.17
2019-02-07T10:49:58.875Z,1005.22
2019-02-07T10:50:50.249Z,1005.24
2019-02-07T10:51:49.221Z,1005.26
2019-02-07T10:52:49.212Z,1005.26
2019-02-07T10:53:49.194Z,1005.30
2019-02-07T10:54:49.184Z,1005.24
2019-02-07T10:55:49.197Z,1005.22
2019-02-07T10:56:49.164Z,1005.23
2019-02-07T10:57:49.148Z,1005.15
2019-02-07T10:58:49.148Z,1005.15
2019-02-07T10:59:49.136Z,1005.09
2019-02-07T11:00:49.135Z,1005.05
2019-02-07T11:01:49.110Z,1005.10
2019-02-07T11:02:49.101Z,1004.99
2019-02-07T11:03:49.105Z,1004.96
2019-02-07T11:04:49.071Z,1004.93
2019-02-07T11:05:49.116Z,1004.95
2019-02-07T11:06:49.050Z,1004.93
2019-02-07T11:07:49.050Z,1004.91
2019-02-07T11:08:49.031Z,1004.91
2019-02-07T11:09:49.019Z,1004.89
2019-02-07T11:10:49.032Z,1004.92
2019-02-07T11:11:49.040Z,1004.85
2019-02-07T11:12:48.983Z,1004.74
2019-02-07T11:13:48.974Z,1004.76
2019-02-07T11:14:48.960Z,1004.73
2019-02-07T11:15:48.962Z,1004.71
2019-02-07T11:16:48.959Z,1004.72
2019-02-07T11:17:48.927Z,1004.74
2019-02-07T11:18:55.352Z,1004.82
2019-02-07T11:19:49.903Z,1004.75
2019-02-07T11:20:48.901Z,1004.78
2019-02-07T11:21:48.907Z,1004.77
2019-02-07T11:22:48.872Z,1004.68
2019-02-07T11:23:48.864Z,1004.62
2019-02-07T11:24:48.856Z,1004.53
2019-02-07T11:25:48.848Z,1004.53
2019-02-07T11:26:48.853Z,1004.52
2019-02-07T11:27:48.815Z,1004.58
2019-02-07T11:28:48.809Z,1004.59
2019-02-07T11:29:48.793Z,1004.62
2019-02-07T11:30:48.945Z,1004.54
2019-02-07T11:31:48.787Z,1004.52
2019-02-07T11:32:48.755Z,1004.52
2019-02-07T11:33:48.756Z,1004.51
2019-02-07T11:34:48.738Z,1004.49
2019-02-07T11:35:48.730Z,1004.47
2019-02-07T11:36:54.170Z,1004.42
2019-02-07T11:37:49.705Z,1004.43
2019-02-07T11:38:48.688Z,1004.40
2019-02-07T11:39:48.688Z,1004.33
2019-02-07T11:40:48.679Z,1004.33
2019-02-07T11:41:48.658Z,1004.28
2019-02-07T11:42:48.668Z,1004.30
2019-02-07T11:43:48.641Z,1004.27
2019-02-07T11:44:50.621Z,1004.24
2019-02-07T11:45:48.615Z,1004.18
2019-02-07T11:46:49.052Z,1004.15
2019-02-07T11:47:48.615Z,1004.14
2019-02-07T11:48:48.593Z,1004.17
2019-02-07T11:49:48.585Z,1004.21
2019-02-07T11:50:48.563Z,1004.20
2019-02-07T11:51:48.543Z,1004.28
2019-02-07T11:52:48.566Z,1004.21
2019-02-07T11:53:48.523Z,1004.14
2019-02-07T11:54:48.517Z,1004.13
2019-02-07T11:55:48.503Z,1004.06
2019-02-07T11:56:48.502Z,1004.11
2019-02-07T11:57:48.495Z,1004.06
2019-02-07T11:58:48.475Z,1003.98
2019-02-07T11:59:48.459Z,1003.99
2019-02-07T12:00:49.949Z,1004.00
2019-02-07T12:01:48.432Z,1004.05
2019-02-07T12:02:48.439Z,1004.02
2019-02-07T12:03:48.414Z,1004.05
2019-02-07T12:04:48.401Z,1003.95
2019-02-07T12:05:48.427Z,1003.96